createdAt,value
2023-11-18T00:01:23.625Z,6.80
2023-11-18T00:04:17.243Z,6.20
2023-11-18T00:07:06.146Z,6.60
2023-11-18T00:09:53.849Z,7.50
2023-11-18T00:12:43.224Z,7.60
2023-11-18T00:15:30.611Z,7.50
2023-11-18T00:18:17.739Z,7.50
2023-11-18T00:21:05.795Z,8.90
2023-11-18T00:23:54.479Z,9.80
2023-11-18T00:26:41.057Z,8.40
2023-11-18T00:29:28.252Z,9.00
2023-11-18T00:32:15.665Z,9.00
2023-11-18T00:35:05.941Z,8.20
2023-11-18T00:37:53.734Z,9.60
2023-11-18T00:40:40.552Z,8.70
2023-11-18T00:43:27.738Z,8.50
2023-11-18T00:46:14.522Z,7.70
2023-11-18T00:49:01.676Z,6.50
2023-11-18T00:51:48.848Z,6.60
2023-11-18T00:54:37.850Z,6.60
2023-11-18T00:57:24.726Z,8.90
2023-11-18T01:00:15.516Z,9.10
2023-11-18T01:03:02.735Z,7.10
2023-11-18T01:05:50.005Z,6.10
2023-11-18T01:08:36.899Z,6.10
2023-11-18T01:11:23.613Z,5.70
2023-11-18T01:14:10.884Z,6.20
2023-11-18T01:16:58.001Z,6.20
2023-11-18T01:19:45.367Z,6.60
2023-11-18T01:22:32.527Z,5.30
2023-11-18T01:25:20.173Z,7.20
2023-11-18T01:28:07.692Z,6.30
2023-11-18T01:30:54.744Z,6.50
2023-11-18T01:33:42.502Z,5.50
2023-11-18T01:36:31.658Z,5.90
2023-11-18T01:39:19.407Z,5.60
2023-11-18T01:42:07.800Z,5.70
2023-11-18T01:44:57.917Z,5.30
2023-11-18T01:47:46.806Z,5.40
2023-11-18T01:50:33.514Z,4.60
2023-11-18T01:53:21.825Z,6.00
2023-11-18T01:56:10.005Z,5.50
2023-11-18T01:59:00.440Z,5.00
2023-11-18T02:01:50.562Z,4.40
2023-11-18T02:04:38.006Z,5.20
2023-11-18T02:07:25.624Z,4.70
2023-11-18T02:10:12.865Z,4.70
2023-11-18T02:13:07.263Z,5.20
2023-11-18T02:15:56.148Z,4.90
2023-11-18T02:18:47.020Z,5.50
2023-11-18T02:21:35.676Z,5.30
2023-11-18T02:24:31.818Z,5.50
2023-11-18T02:27:21.599Z,5.50
2023-11-18T02:30:13.764Z,5.70
2023-11-18T02:33:16.030Z,5.20
2023-11-18T02:36:11.856Z,4.90
2023-11-18T02:38:59.712Z,5.50
2023-11-18T02:41:49.818Z,4.90
2023-11-18T02:44:37.942Z,5.20
2023-11-18T02:47:25.893Z,5.10
2023-11-18T02:50:14.911Z,5.40
2023-11-18T02:53:02.136Z,5.40
2023-11-18T02:55:49.479Z,5.10
2023-11-18T02:58:36.453Z,5.10
2023-11-18T03:01:26.455Z,4.90
2023-11-18T03:04:15.328Z,5.20
2023-11-18T03:07:02.253Z,5.20
2023-11-18T03:09:49.003Z,5.30
2023-11-18T03:12:35.782Z,5.40
2023-11-18T03:15:24.273Z,5.20
2023-11-18T03:18:12.104Z,5.10
2023-11-18T03:20:58.919Z,5.50
2023-11-18T03:23:46.752Z,4.60
2023-11-18T03:26:33.746Z,4.70
2023-11-18T03:29:21.453Z,3.40
2023-11-18T03:32:08.736Z,3.90
2023-11-18T03:35:00.607Z,3.60
2023-11-18T03:37:48.036Z,3.50
2023-11-18T03:40:36.820Z,3.50
2023-11-18T03:43:24.063Z,3.50
2023-11-18T03:46:12.316Z,3.30
2023-11-18T03:48:59.244Z,3.40
2023-11-18T03:51:46.053Z,2.80
2023-11-18T03:54:32.811Z,3.00
2023-11-18T03:57:19.824Z,2.40
2023-11-18T04:00:08.312Z,2.80
2023-11-18T04:03:00.640Z,3.10
2023-11-18T04:05:49.187Z,3.30
2023-11-18T04:08:36.471Z,3.20
2023-11-18T04:11:23.584Z,3.50
2023-11-18T04:14:10.463Z,3.60
2023-11-18T04:16:58.957Z,3.40
2023-11-18T04:19:46.482Z,3.30
2023-11-18T04:22:33.449Z,3.00
2023-11-18T04:25:20.495Z,2.90
2023-11-18T04:28:07.103Z,3.00
2023-11-18T04:30:54.278Z,2.90
2023-11-18T04:33:41.653Z,2.80
2023-11-18T04:36:28.342Z,2.60
2023-11-18T04:39:17.302Z,2.30
2023-11-18T04:42:04.916Z,2.60
2023-11-18T04:44:52.304Z,2.10
2023-11-18T04:47:39.830Z,1.80
2023-11-18T04:50:26.917Z,1.60
2023-11-18T04:53:13.798Z,1.60
2023-11-18T04:56:00.969Z,1.80
2023-11-18T04:58:48.970Z,1.70
2023-11-18T05:01:35.883Z,1.50
2023-11-18T05:04:23.134Z,1.40
2023-11-18T05:07:10.135Z,1.50
2023-11-18T05:09:57.186Z,1.70
2023-11-18T05:12:45.025Z,1.90
2023-11-18T05:15:32.863Z,1.40
2023-11-18T05:18:19.824Z,1.70
2023-11-18T05:21:07.374Z,1.40
2023-11-18T05:23:54.521Z,1.80
2023-11-18T05:26:41.886Z,1.90
2023-11-18T05:29:29.996Z,2.20
2023-11-18T05:32:17.115Z,2.00
2023-11-18T05:35:07.650Z,2.20
2023-11-18T05:37:55.631Z,2.10
2023-11-18T05:40:45.104Z,1.90
2023-11-18T05:43:42.205Z,2.10
2023-11-18T05:46:34.123Z,1.80
2023-11-18T05:49:23.925Z,1.40
2023-11-18T05:52:10.707Z,1.20
2023-11-18T05:54:57.966Z,1.40
2023-11-18T05:57:46.357Z,1.30
2023-11-18T06:00:39.157Z,1.30
2023-11-18T06:03:28.530Z,1.30
2023-11-18T06:06:21.194Z,2.60
2023-11-18T06:09:19.147Z,2.40
2023-11-18T06:12:10.171Z,3.40
2023-11-18T06:14:59.370Z,2.90
2023-11-18T06:17:47.175Z,6.10
2023-11-18T06:20:36.500Z,7.80
2023-11-18T06:23:26.181Z,3.40
2023-11-18T06:26:13.296Z,4.00
2023-11-18T06:29:00.905Z,4.40
2023-11-18T06:31:48.230Z,2.80
2023-11-18T06:34:35.197Z,2.20
2023-11-18T06:37:22.276Z,3.00
2023-11-18T06:40:17.708Z,3.20
2023-11-18T06:43:04.782Z,2.50
2023-11-18T06:45:52.070Z,3.10
2023-11-18T06:48:39.234Z,3.90
2023-11-18T06:51:28.883Z,3.80
2023-11-18T06:54:17.088Z,3.60
2023-11-18T06:57:04.419Z,4.90
2023-11-18T06:59:51.526Z,6.30
2023-11-18T07:02:39.633Z,6.00
2023-11-18T07:05:26.412Z,7.70
2023-11-18T07:08:14.517Z,6.80
2023-11-18T07:11:02.818Z,11.30
2023-11-18T07:13:50.719Z,11.00
2023-11-18T07:16:40.382Z,9.00
2023-11-18T07:19:27.224Z,6.90
2023-11-18T07:22:16.333Z,7.50
2023-11-18T07:25:04.040Z,7.90
2023-11-18T07:27:51.113Z,8.60
2023-11-18T07:30:38.381Z,9.20
2023-11-18T07:33:26.024Z,8.00
2023-11-18T07:36:13.188Z,9.60
2023-11-18T07:39:02.408Z,10.20
2023-11-18T07:41:49.373Z,10.20
2023-11-18T07:44:36.135Z,10.80
2023-11-18T07:47:23.347Z,11.70
2023-11-18T07:50:13.662Z,11.30
2023-11-18T07:53:00.929Z,9.20
2023-11-18T07:55:49.273Z,11.00
2023-11-18T07:58:39.259Z,9.80
2023-11-18T08:01:27.544Z,10.80
2023-11-18T08:04:15.112Z,10.30
2023-11-18T08:07:03.222Z,9.30
2023-11-18T08:09:50.246Z,8.80
2023-11-18T08:12:37.837Z,9.10
2023-11-18T08:15:24.678Z,8.70
2023-11-18T08:18:12.604Z,8.40
2023-11-18T08:21:01.551Z,8.60
2023-11-18T08:23:50.652Z,8.00
2023-11-18T08:26:38.715Z,7.90
2023-11-18T08:29:29.391Z,8.70
2023-11-18T08:32:16.706Z,9.00
2023-11-18T08:35:08.869Z,8.40
2023-11-18T08:37:55.966Z,10.40
2023-11-18T08:40:44.343Z,17.40
2023-11-18T08:43:31.334Z,13.90
2023-11-18T08:46:18.496Z,20.50
2023-11-18T08:49:12.132Z,40.60
2023-11-18T08:52:00.994Z,18.80
2023-11-18T08:55:07.190Z,41.30
2023-11-18T08:57:59.868Z,14.50
2023-11-18T09:01:05.846Z,11.30
2023-11-18T09:03:54.213Z,31.60
2023-11-18T09:06:41.618Z,23.30
2023-11-18T09:09:28.834Z,12.90
2023-11-18T09:12:16.083Z,8.70
2023-11-18T09:15:05.075Z,7.90
2023-11-18T09:17:51.644Z,7.70
2023-11-18T09:20:39.454Z,4.20
2023-11-18T09:23:28.571Z,5.20
2023-11-18T09:26:16.161Z,9.00
2023-11-18T09:29:03.427Z,4.80
2023-11-18T09:31:53.744Z,7.90
2023-11-18T09:34:43.933Z,17.50
2023-11-18T09:37:30.907Z,12.60
2023-11-18T09:40:19.403Z,13.80
2023-11-18T09:43:10.741Z,10.90
2023-11-18T09:46:02.957Z,20.00
2023-11-18T09:48:54.531Z,11.40
2023-11-18T09:51:43.707Z,7.90
2023-11-18T09:54:45.630Z,7.20
2023-11-18T09:57:35.932Z,48.40
2023-11-18T10:00:28.834Z,12.50
2023-11-18T10:03:17.298Z,14.00
2023-11-18T10:06:07.658Z,8.20
2023-11-18T10:08:55.343Z,9.20
2023-11-18T10:11:49.102Z,6.10
2023-11-18T10:14:36.826Z,5.70
2023-11-18T10:17:26.394Z,4.00
2023-11-18T10:20:17.669Z,6.90
2023-11-18T10:23:12.206Z,10.60
2023-11-18T10:26:02.793Z,7.40
2023-11-18T10:28:50.931Z,6.80
2023-11-18T10:31:38.839Z,7.00
2023-11-18T10:34:29.302Z,13.30
2023-11-18T10:37:18.268Z,14.00
2023-11-18T10:40:07.104Z,7.00
2023-11-18T10:42:54.411Z,34.90
2023-11-18T10:45:45.164Z,21.70
2023-11-18T10:48:34.509Z,26.80
2023-11-18T10:51:24.766Z,11.20
2023-11-18T10:54:18.598Z,9.30
2023-11-18T10:57:10.768Z,11.30
2023-11-18T11:00:34.008Z,6.50
2023-11-18T11:03:21.048Z,9.10
2023-11-18T11:06:20.375Z,9.30
2023-11-18T11:09:18.479Z,5.00
2023-11-18T11:12:16.293Z,6.00
2023-11-18T11:15:13.524Z,7.40
2023-11-18T11:18:10.328Z,13.90
2023-11-18T11:21:17.944Z,8.80
2023-11-18T11:24:13.928Z,10.00
2023-11-18T11:27:41.250Z,12.40
2023-11-18T11:30:39.970Z,13.10
2023-11-18T11:33:41.964Z,18.10
2023-11-18T11:36:37.570Z,12.90
2023-11-18T11:39:32.313Z,7.30
2023-11-18T11:45:21.616Z,7.70
2023-11-18T11:48:16.138Z,7.40
2023-11-18T11:54:16.675Z,5.90
2023-11-18T11:57:03.979Z,4.60
2023-11-18T11:59:54.386Z,9.50
2023-11-18T12:02:42.034Z,18.80
2023-11-18T12:05:29.921Z,34.50
2023-11-18T12:08:19.925Z,24.10
2023-11-18T12:11:11.063Z,18.60
2023-11-18T12:14:11.060Z,13.20
2023-11-18T12:17:09.467Z,16.20
2023-11-18T12:20:07.944Z,13.00
2023-11-18T12:23:16.130Z,10.20
2023-11-18T12:26:05.337Z,21.50
2023-11-18T12:28:55.039Z,6.50
2023-11-18T12:31:43.666Z,10.40
2023-11-18T12:34:50.786Z,8.90
2023-11-18T12:38:25.793Z,21.70
2023-11-18T12:41:44.878Z,16.20
2023-11-18T12:44:40.419Z,16.60
2023-11-18T12:47:30.278Z,9.70
2023-11-18T12:50:25.826Z,20.10
2023-11-18T12:56:04.822Z,13.80
2023-11-18T12:58:52.212Z,16.30
2023-11-18T13:01:39.161Z,18.20
2023-11-18T13:04:28.867Z,63.60
2023-11-18T13:07:21.454Z,15.70
2023-11-18T13:10:09.366Z,20.70
2023-11-18T13:12:56.337Z,14.40
2023-11-18T13:15:45.413Z,37.50
2023-11-18T13:18:48.721Z,20.70
2023-11-18T13:21:37.929Z,35.10
2023-11-18T13:24:25.069Z,13.60
2023-11-18T13:27:15.268Z,15.30
2023-11-18T13:30:02.144Z,15.30
2023-11-18T13:32:51.039Z,14.00
2023-11-18T13:35:38.373Z,14.50
2023-11-18T13:38:26.928Z,9.70
2023-11-18T13:41:29.834Z,13.20
2023-11-18T13:44:44.245Z,11.50
2023-11-18T13:47:33.821Z,6.70
2023-11-18T13:50:21.275Z,9.50
2023-11-18T13:53:09.769Z,12.50
2023-11-18T13:55:56.751Z,8.00
2023-11-18T13:58:46.856Z,22.20
2023-11-18T14:01:35.031Z,11.60
2023-11-18T14:04:29.912Z,17.20
2023-11-18T14:07:19.702Z,11.00
2023-11-18T14:10:09.594Z,22.10
2023-11-18T14:13:24.259Z,17.30
2023-11-18T14:16:13.961Z,14.00
2023-11-18T14:19:01.517Z,11.90
2023-11-18T14:21:48.275Z,16.70
2023-11-18T14:24:36.863Z,15.30
2023-11-18T14:27:23.949Z,15.60
2023-11-18T14:30:11.808Z,12.70
2023-11-18T14:32:58.764Z,10.60
2023-11-18T14:35:49.016Z,9.40
2023-11-18T14:38:36.028Z,12.60
2023-11-18T14:41:29.736Z,12.40
2023-11-18T14:44:16.916Z,19.60
2023-11-18T14:47:04.771Z,21.50
2023-11-18T14:49:51.720Z,24.20
2023-11-18T14:52:43.065Z,18.30
2023-11-18T14:55:31.039Z,27.80
2023-11-18T14:58:18.418Z,61.70
2023-11-18T15:01:08.269Z,40.20
2023-11-18T15:03:57.304Z,21.60
2023-11-18T15:06:44.438Z,18.10
2023-11-18T15:09:33.226Z,15.10
2023-11-18T15:12:21.281Z,16.50
2023-11-18T15:15:15.724Z,26.10
2023-11-18T15:18:15.124Z,13.20
2023-11-18T15:21:02.404Z,15.00
2023-11-18T15:23:51.414Z,14.90
2023-11-18T15:26:38.424Z,11.70
2023-11-18T15:29:32.733Z,9.70
2023-11-18T15:35:12.412Z,10.30
2023-11-18T15:38:02.350Z,14.10
2023-11-18T15:40:53.133Z,13.10
2023-11-18T15:43:40.377Z,17.50
2023-11-18T15:46:30.355Z,10.30
2023-11-18T15:49:20.303Z,10.70
2023-11-18T15:52:08.579Z,10.90
2023-11-18T15:54:55.715Z,14.50
2023-11-18T15:57:43.737Z,17.00
2023-11-18T16:00:31.106Z,16.90
2023-11-18T16:03:18.078Z,14.30
2023-11-18T16:06:07.358Z,20.00
2023-11-18T16:08:57.176Z,20.60
2023-11-18T16:11:44.175Z,17.50
2023-11-18T16:14:31.102Z,14.40
2023-11-18T16:17:18.994Z,13.10
2023-11-18T16:20:08.179Z,12.00
2023-11-18T16:22:56.516Z,13.30
2023-11-18T16:25:43.423Z,10.40
2023-11-18T16:28:32.825Z,11.30
2023-11-18T16:31:20.070Z,15.60
2023-11-18T16:34:07.963Z,13.90
2023-11-18T16:36:57.886Z,10.10
2023-11-18T16:39:48.189Z,12.20
2023-11-18T16:42:37.792Z,9.60
2023-11-18T16:45:26.130Z,14.60
2023-11-18T16:48:15.491Z,18.30
2023-11-18T16:51:02.947Z,14.30
2023-11-18T16:53:50.990Z,10.30
2023-11-18T16:56:37.769Z,13.00
2023-11-18T16:59:24.651Z,19.40
2023-11-18T17:02:13.495Z,15.50
2023-11-18T17:05:00.836Z,12.70
2023-11-18T17:07:50.041Z,11.90
2023-11-18T17:10:38.276Z,9.80
2023-11-18T17:13:26.761Z,10.50
2023-11-18T17:16:17.746Z,13.30
2023-11-18T17:19:05.757Z,13.30
2023-11-18T17:21:55.560Z,11.70
2023-11-18T17:24:43.075Z,12.70
2023-11-18T17:27:30.054Z,14.20
2023-11-18T17:30:17.655Z,14.40
2023-11-18T17:33:05.056Z,13.70
2023-11-18T17:35:51.991Z,15.10
2023-11-18T17:38:40.664Z,19.80
2023-11-18T17:41:27.420Z,14.80
2023-11-18T17:44:18.020Z,17.90
2023-11-18T17:47:05.263Z,16.10
2023-11-18T17:49:52.848Z,16.90
2023-11-18T17:52:45.283Z,15.00
2023-11-18T17:55:31.918Z,12.90
2023-11-18T17:58:19.411Z,14.60
2023-11-18T18:01:07.766Z,17.40
2023-11-18T18:03:55.958Z,15.90
2023-11-18T18:06:43.458Z,15.60
2023-11-18T18:09:30.978Z,13.40
2023-11-18T18:12:20.371Z,14.00
2023-11-18T18:15:09.950Z,12.70
2023-11-18T18:17:57.326Z,21.80
2023-11-18T18:20:49.427Z,15.50
2023-11-18T18:23:36.887Z,18.00
2023-11-18T18:26:23.806Z,15.20
2023-11-18T18:29:10.757Z,17.70
2023-11-18T18:31:57.959Z,18.30
2023-11-18T18:34:48.001Z,13.90
2023-11-18T18:37:34.905Z,23.30
2023-11-18T18:40:24.303Z,17.70
2023-11-18T18:43:11.868Z,18.60
2023-11-18T18:45:58.797Z,12.50
2023-11-18T18:48:45.853Z,12.60
2023-11-18T18:51:34.662Z,14.00
2023-11-18T18:54:22.992Z,12.20
2023-11-18T18:57:10.002Z,12.30
2023-11-18T18:59:57.128Z,14.40
2023-11-18T19:02:44.608Z,14.40
2023-11-18T19:05:32.028Z,12.30
2023-11-18T19:08:19.414Z,8.90
2023-11-18T19:11:07.258Z,12.00
2023-11-18T19:13:56.240Z,12.30
2023-11-18T19:16:44.417Z,16.40
2023-11-18T19:19:35.322Z,10.80
2023-11-18T19:22:22.402Z,12.40
2023-11-18T19:25:12.636Z,10.90
2023-11-18T19:27:59.703Z,9.70
2023-11-18T19:30:48.985Z,12.80
2023-11-18T19:33:35.925Z,16.40
2023-11-18T19:36:22.853Z,15.80
2023-11-18T19:39:09.849Z,15.90
2023-11-18T19:41:58.339Z,15.20
2023-11-18T19:44:45.162Z,37.80
2023-11-18T19:47:33.567Z,21.30
2023-11-18T19:53:15.546Z,13.40
2023-11-18T19:56:02.741Z,11.10
2023-11-18T19:58:50.782Z,12.30
2023-11-18T20:01:37.490Z,11.40
2023-11-18T20:04:28.167Z,12.80
2023-11-18T20:07:16.460Z,10.30
2023-11-18T20:10:05.791Z,11.10
2023-11-18T20:12:53.941Z,13.00
2023-11-18T20:15:40.751Z,12.20
2023-11-18T20:18:27.952Z,10.60
2023-11-18T20:21:17.131Z,11.10
2023-11-18T20:24:05.536Z,12.70
2023-11-18T20:26:52.413Z,13.60
2023-11-18T20:29:41.944Z,11.20
2023-11-18T20:32:29.854Z,12.90
2023-11-18T20:35:17.065Z,15.90
2023-11-18T20:38:04.240Z,12.70
2023-11-18T20:40:51.565Z,10.00
2023-11-18T20:43:38.329Z,11.50
2023-11-18T20:46:27.915Z,14.30
2023-11-18T20:49:18.622Z,10.60
2023-11-18T20:52:06.884Z,9.20
2023-11-18T20:54:53.779Z,10.20
2023-11-18T20:57:40.891Z,12.50
2023-11-18T21:00:27.753Z,14.50
2023-11-18T21:03:20.985Z,15.70
2023-11-18T21:06:08.746Z,14.30
2023-11-18T21:08:56.183Z,14.50
2023-11-18T21:11:43.417Z,20.70
2023-11-18T21:14:31.774Z,14.60
2023-11-18T21:17:19.123Z,13.10
2023-11-18T21:20:07.403Z,13.20
2023-11-18T21:22:54.570Z,15.90
2023-11-18T21:25:42.967Z,23.30
2023-11-18T21:28:29.655Z,25.60
2023-11-18T21:31:18.093Z,24.20
2023-11-18T21:34:06.038Z,27.30
2023-11-18T21:36:53.417Z,22.90
2023-11-18T21:39:40.444Z,21.30
2023-11-18T21:42:29.932Z,24.30
2023-11-18T21:45:16.618Z,28.40
2023-11-18T21:48:05.720Z,27.60
2023-11-18T21:50:54.082Z,27.30
2023-11-18T21:53:41.798Z,32.60
2023-11-18T21:56:36.383Z,29.60
2023-11-18T21:59:27.608Z,29.90
2023-11-18T22:02:14.915Z,32.80
2023-11-18T22:05:02.248Z,30.30
2023-11-18T22:07:49.582Z,27.60
2023-11-18T22:10:37.217Z,21.20
2023-11-18T22:13:27.746Z,24.80
2023-11-18T22:16:14.635Z,35.70
2023-11-18T22:19:01.588Z,45.00
2023-11-18T22:21:49.778Z,112.70
2023-11-18T22:24:37.870Z,67.50
2023-11-18T22:27:24.499Z,57.10
2023-11-18T22:30:17.511Z,62.80
2023-11-18T22:33:07.017Z,59.80
2023-11-18T22:35:55.297Z,65.80
2023-11-18T22:38:50.097Z,68.20
2023-11-18T22:44:24.592Z,84.70
2023-11-18T22:47:12.064Z,67.60
2023-11-18T22:50:01.256Z,113.10
2023-11-18T22:52:54.145Z,137.40
2023-11-18T22:55:41.601Z,108.40
2023-11-18T22:58:29.868Z,87.10
2023-11-18T23:01:21.484Z,74.10
2023-11-18T23:04:13.170Z,108.60
2023-11-18T23:07:00.887Z,133.90
2023-11-18T23:09:47.572Z,150.50
2023-11-18T23:12:34.569Z,77.40
2023-11-18T23:15:23.038Z,71.20
2023-11-18T23:18:15.959Z,57.10
2023-11-18T23:21:03.793Z,58.00
2023-11-18T23:23:53.145Z,53.90
2023-11-18T23:26:39.989Z,60.00
2023-11-18T23:29:26.937Z,67.40
2023-11-18T23:32:13.826Z,66.30
2023-11-18T23:35:02.277Z,68.60
2023-11-18T23:37:50.300Z,69.30
2023-11-18T23:40:38.826Z,81.70
2023-11-18T23:43:25.616Z,106.20
2023-11-18T23:46:14.548Z,78.20
2023-11-18T23:49:01.831Z,63.10
2023-11-18T23:51:48.942Z,57.10
2023-11-18T23:54:37.518Z,55.60
2023-11-18T23:57:27.507Z,51.80
